sensor_id;sensor_type;location;lat;lon;timestamp;temperature;humidity
17992;DHT22;9121;50.926;5.340;2023-01-08T00:01:14;11.00;99.90
17992;DHT22;9121;50.926;5.340;2023-01-08T00:03:41;11.00;99.90
17992;DHT22;9121;50.926;5.340;2023-01-08T00:06:11;11.00;99.90
17992;DHT22;9121;50.926;5.340;2023-01-08T00:08:40;11.00;99.90
17992;DHT22;9121;50.926;5.340;2023-01-08T00:11:07;11.00;99.90
17992;DHT22;9121;50.926;5.340;2023-01-08T00:13:34;10.90;99.90
17992;DHT22;9121;50.926;5.340;2023-01-08T00:16:03;10.90;99.90
17992;DHT22;9121;50.926;5.340;2023-01-08T00:18:30;10.90;99.90
17992;DHT22;9121;50.926;5.340;2023-01-08T00:20:57;10.90;99.90
17992;DHT22;9121;50.926;5.340;2023-01-08T00:23:24;10.90;99.90
17992;DHT22;9121;50.926;5.340;2023-01-08T00:25:52;10.90;99.90
17992;DHT22;9121;50.926;5.340;2023-01-08T00:28:19;11.00;99.90
17992;DHT22;9121;50.926;5.340;2023-01-08T00:30:46;10.90;99.90
17992;DHT22;9121;50.926;5.340;2023-01-08T00:33:13;11.00;99.90
17992;DHT22;9121;50.926;5.340;2023-01-08T00:35:41;11.00;99.90
17992;DHT22;9121;50.926;5.340;2023-01-08T00:38:08;11.10;99.90
17992;DHT22;9121;50.926;5.340;2023-01-08T00:40:35;11.00;99.90
17992;DHT22;9121;50.926;5.340;2023-01-08T00:43:04;11.00;99.90
17992;DHT22;9121;50.926;5.340;2023-01-08T00:45:31;11.00;99.90
17992;DHT22;9121;50.926;5.340;2023-01-08T00:47:58;11.10;99.90
17992;DHT22;9121;50.926;5.340;2023-01-08T00:50:25;11.10;99.90
17992;DHT22;9121;50.926;5.340;2023-01-08T00:52:52;11.10;99.90
17992;DHT22;9121;50.926;5.340;2023-01-08T00:55:19;11.10;99.90
17992;DHT22;9121;50.926;5.340;2023-01-08T00:57:46;11.10;99.90
17992;DHT22;9121;50.926;5.340;2023-01-08T01:00:16;11.10;99.90
17992;DHT22;9121;50.926;5.340;2023-01-08T01:02:43;11.10;99.90
17992;DHT22;9121;50.926;5.340;2023-01-08T01:05:11;11.20;99.90
17992;DHT22;9121;50.926;5.340;2023-01-08T01:07:40;11.10;99.90
17992;DHT22;9121;50.926;5.340;2023-01-08T01:10:07;11.10;99.90
17992;DHT22;9121;50.926;5.340;2023-01-08T01:12:36;11.20;99.90
17992;DHT22;9121;50.926;5.340;2023-01-08T01:15:04;11.20;99.90
17992;DHT22;9121;50.926;5.340;2023-01-08T01:17:33;11.10;99.90
17992;DHT22;9121;50.926;5.340;2023-01-08T01:20:00;11.20;99.90
17992;DHT22;9121;50.926;5.340;2023-01-08T01:22:27;11.10;99.90
17992;DHT22;9121;50.926;5.340;2023-01-08T01:24:54;11.10;99.90
17992;DHT22;9121;50.926;5.340;2023-01-08T01:27:21;11.10;99.90
17992;DHT22;9121;50.926;5.340;2023-01-08T01:29:48;11.20;99.90
17992;DHT22;9121;50.926;5.340;2023-01-08T01:32:15;11.20;99.90
17992;DHT22;9121;50.926;5.340;2023-01-08T01:34:44;11.20;99.90
17992;DHT22;9121;50.926;5.340;2023-01-08T01:37:12;11.10;99.90
17992;DHT22;9121;50.926;5.340;2023-01-08T01:39:39;11.10;99.90
17992;DHT22;9121;50.926;5.340;2023-01-08T01:42:11;11.10;99.90
17992;DHT22;9121;50.926;5.340;2023-01-08T01:44:59;11.10;99.90
17992;DHT22;9121;50.926;5.340;2023-01-08T01:47:28;11.10;99.90
17992;DHT22;9121;50.926;5.340;2023-01-08T01:50:00;11.10;99.90
17992;DHT22;9121;50.926;5.340;2023-01-08T01:52:30;11.00;99.90
17992;DHT22;9121;50.926;5.340;2023-01-08T01:55:00;11.10;99.90
17992;DHT22;9121;50.926;5.340;2023-01-08T01:57:27;11.00;99.90
17992;DHT22;9121;50.926;5.340;2023-01-08T01:59:55;11.00;99.90
17992;DHT22;9121;50.926;5.340;2023-01-08T02:02:23;11.00;99.90
17992;DHT22;9121;50.926;5.340;2023-01-08T02:04:50;11.00;99.90
17992;DHT22;9121;50.926;5.340;2023-01-08T02:07:26;11.10;99.90
17992;DHT22;9121;50.926;5.340;2023-01-08T02:10:02;11.00;99.90
17992;DHT22;9121;50.926;5.340;2023-01-08T02:12:34;11.00;99.90
17992;DHT22;9121;50.926;5.340;2023-01-08T02:15:11;11.10;99.90
17992;DHT22;9121;50.926;5.340;2023-01-08T02:17:46;11.00;99.90
17992;DHT22;9121;50.926;5.340;2023-01-08T02:20:19;11.00;99.90
17992;DHT22;9121;50.926;5.340;2023-01-08T02:23:15;11.00;99.90
17992;DHT22;9121;50.926;5.340;2023-01-08T02:26:13;11.00;99.90
17992;DHT22;9121;50.926;5.340;2023-01-08T02:28:44;11.00;99.90
17992;DHT22;9121;50.926;5.340;2023-01-08T02:31:14;10.90;99.90
17992;DHT22;9121;50.926;5.340;2023-01-08T02:33:41;10.90;99.90
17992;DHT22;9121;50.926;5.340;2023-01-08T02:36:31;10.90;99.90
17992;DHT22;9121;50.926;5.340;2023-01-08T02:39:13;10.90;99.90
17992;DHT22;9121;50.926;5.340;2023-01-08T02:42:02;10.90;99.90
17992;DHT22;9121;50.926;5.340;2023-01-08T02:44:36;11.00;99.90
17992;DHT22;9121;50.926;5.340;2023-01-08T02:47:09;10.90;99.90
17992;DHT22;9121;50.926;5.340;2023-01-08T02:49:39;10.90;99.90
17992;DHT22;9121;50.926;5.340;2023-01-08T02:52:08;10.90;99.90
17992;DHT22;9121;50.926;5.340;2023-01-08T02:54:37;10.90;99.90
17992;DHT22;9121;50.926;5.340;2023-01-08T02:57:10;10.90;99.90
17992;DHT22;9121;50.926;5.340;2023-01-08T02:59:38;11.00;99.90
17992;DHT22;9121;50.926;5.340;2023-01-08T03:02:06;10.90;99.90
17992;DHT22;9121;50.926;5.340;2023-01-08T03:04:36;10.90;99.90
17992;DHT22;9121;50.926;5.340;2023-01-08T03:07:05;11.00;99.90
17992;DHT22;9121;50.926;5.340;2023-01-08T03:09:32;11.00;99.90
17992;DHT22;9121;50.926;5.340;2023-01-08T03:12:09;11.00;99.90
17992;DHT22;9121;50.926;5.340;2023-01-08T03:14:42;11.00;99.90
17992;DHT22;9121;50.926;5.340;2023-01-08T03:17:17;11.00;99.90
17992;DHT22;9121;50.926;5.340;2023-01-08T03:19:48;11.00;99.90
17992;DHT22;9121;50.926;5.340;2023-01-08T03:22:17;10.90;99.90
17992;DHT22;9121;50.926;5.340;2023-01-08T03:24:47;10.90;99.90
17992;DHT22;9121;50.926;5.340;2023-01-08T03:27:17;10.90;99.90
17992;DHT22;9121;50.926;5.340;2023-01-08T03:29:49;10.90;99.90
17992;DHT22;9121;50.926;5.340;2023-01-08T03:32:19;10.90;99.90
17992;DHT22;9121;50.926;5.340;2023-01-08T03:34:49;10.90;99.90
17992;DHT22;9121;50.926;5.340;2023-01-08T03:37:21;10.90;99.90
17992;DHT22;9121;50.926;5.340;2023-01-08T03:39:54;10.90;99.90
17992;DHT22;9121;50.926;5.340;2023-01-08T03:42:24;11.00;99.90
17992;DHT22;9121;50.926;5.340;2023-01-08T03:44:53;11.00;99.90
17992;DHT22;9121;50.926;5.340;2023-01-08T03:47:21;11.00;99.90
17992;DHT22;9121;50.926;5.340;2023-01-08T03:49:51;11.00;99.90
17992;DHT22;9121;50.926;5.340;2023-01-08T03:52:23;11.00;99.90
17992;DHT22;9121;50.926;5.340;2023-01-08T03:54:51;11.00;99.90
17992;DHT22;9121;50.926;5.340;2023-01-08T03:57:18;10.90;99.90
17992;DHT22;9121;50.926;5.340;2023-01-08T03:59:45;10.70;99.90
17992;DHT22;9121;50.926;5.340;2023-01-08T04:02:14;10.60;99.90
17992;DHT22;9121;50.926;5.340;2023-01-08T04:04:41;10.50;99.90
17992;DHT22;9121;50.926;5.340;2023-01-08T04:07:09;10.40;99.90
17992;DHT22;9121;50.926;5.340;2023-01-08T04:09:37;10.20;99.90
17992;DHT22;9121;50.926;5.340;2023-01-08T04:12:04;10.20;96.80
17992;DHT22;9121;50.926;5.340;2023-01-08T04:14:31;10.20;95.70
17992;DHT22;9121;50.926;5.340;2023-01-08T04:16:58;10.10;93.90
17992;DHT22;9121;50.926;5.340;2023-01-08T04:19:26;10.10;93.30
17992;DHT22;9121;50.926;5.340;2023-01-08T04:21:53;10.20;91.60
17992;DHT22;9121;50.926;5.340;2023-01-08T04:24:20;10.20;89.50
17992;DHT22;9121;50.926;5.340;2023-01-08T04:26:47;10.20;89.50
17992;DHT22;9121;50.926;5.340;2023-01-08T04:29:14;10.20;86.20
17992;DHT22;9121;50.926;5.340;2023-01-08T04:31:41;10.20;43.20
17992;DHT22;9121;50.926;5.340;2023-01-08T04:34:09;10.30;43.30
17992;DHT22;9121;50.926;5.340;2023-01-08T04:36:37;10.20;49.60
17992;DHT22;9121;50.926;5.340;2023-01-08T04:39:04;10.30;52.70
17992;DHT22;9121;50.926;5.340;2023-01-08T04:41:31;10.30;58.80
17992;DHT22;9121;50.926;5.340;2023-01-08T04:43:58;10.20;64.50
17992;DHT22;9121;50.926;5.340;2023-01-08T04:46:25;10.00;90.90
17992;DHT22;9121;50.926;5.340;2023-01-08T04:48:52;9.70;99.90
17992;DHT22;9121;50.926;5.340;2023-01-08T04:51:19;9.50;99.90
17992;DHT22;9121;50.926;5.340;2023-01-08T04:53:49;9.40;99.90
17992;DHT22;9121;50.926;5.340;2023-01-08T04:56:16;9.20;99.90
17992;DHT22;9121;50.926;5.340;2023-01-08T04:58:42;9.10;99.90
17992;DHT22;9121;50.926;5.340;2023-01-08T05:01:11;9.00;99.90
17992;DHT22;9121;50.926;5.340;2023-01-08T05:03:38;9.00;99.90
17992;DHT22;9121;50.926;5.340;2023-01-08T05:06:05;8.90;99.90
17992;DHT22;9121;50.926;5.340;2023-01-08T05:08:32;8.90;99.90
17992;DHT22;9121;50.926;5.340;2023-01-08T05:11:01;8.90;99.90
17992;DHT22;9121;50.926;5.340;2023-01-08T05:13:28;8.90;99.90
17992;DHT22;9121;50.926;5.340;2023-01-08T05:15:58;9.00;99.90
17992;DHT22;9121;50.926;5.340;2023-01-08T05:18:26;9.00;99.90
17992;DHT22;9121;50.926;5.340;2023-01-08T05:20:53;9.00;99.90
17992;DHT22;9121;50.926;5.340;2023-01-08T05:23:20;9.00;99.90
17992;DHT22;9121;50.926;5.340;2023-01-08T05:25:47;9.00;99.90
17992;DHT22;9121;50.926;5.340;2023-01-08T05:28:15;9.00;99.90
17992;DHT22;9121;50.926;5.340;2023-01-08T05:30:42;9.00;99.90
17992;DHT22;9121;50.926;5.340;2023-01-08T05:33:09;9.00;99.90
17992;DHT22;9121;50.926;5.340;2023-01-08T05:35:38;8.90;99.90
17992;DHT22;9121;50.926;5.340;2023-01-08T05:38:05;8.90;99.90
17992;DHT22;9121;50.926;5.340;2023-01-08T05:40:32;8.80;99.90
17992;DHT22;9121;50.926;5.340;2023-01-08T05:42:59;8.90;99.90
17992;DHT22;9121;50.926;5.340;2023-01-08T05:45:28;8.90;99.90
17992;DHT22;9121;50.926;5.340;2023-01-08T05:47:55;8.90;99.90
17992;DHT22;9121;50.926;5.340;2023-01-08T05:50:22;8.90;99.90
17992;DHT22;9121;50.926;5.340;2023-01-08T05:52:49;9.00;99.90
17992;DHT22;9121;50.926;5.340;2023-01-08T05:55:16;9.00;99.90
17992;DHT22;9121;50.926;5.340;2023-01-08T05:57:43;8.90;99.90
17992;DHT22;9121;50.926;5.340;2023-01-08T06:00:12;8.90;99.90
17992;DHT22;9121;50.926;5.340;2023-01-08T06:02:45;8.90;99.90
17992;DHT22;9121;50.926;5.340;2023-01-08T06:05:12;9.00;99.90
17992;DHT22;9121;50.926;5.340;2023-01-08T06:07:39;8.90;99.90
17992;DHT22;9121;50.926;5.340;2023-01-08T06:10:06;8.90;99.90
17992;DHT22;9121;50.926;5.340;2023-01-08T06:12:34;8.90;99.90
17992;DHT22;9121;50.926;5.340;2023-01-08T06:15:00;8.80;99.90
17992;DHT22;9121;50.926;5.340;2023-01-08T06:17:27;8.70;99.90
17992;DHT22;9121;50.926;5.340;2023-01-08T06:19:56;8.70;99.90
17992;DHT22;9121;50.926;5.340;2023-01-08T06:22:23;8.70;99.90
17992;DHT22;9121;50.926;5.340;2023-01-08T06:24:50;8.70;99.90
17992;DHT22;9121;50.926;5.340;2023-01-08T06:27:16;8.70;99.90
17992;DHT22;9121;50.926;5.340;2023-01-08T06:29:43;8.60;99.90
17992;DHT22;9121;50.926;5.340;2023-01-08T06:32:10;8.60;99.90
17992;DHT22;9121;50.926;5.340;2023-01-08T06:34:37;8.60;99.90
17992;DHT22;9121;50.926;5.340;2023-01-08T06:37:06;8.60;99.90
17992;DHT22;9121;50.926;5.340;2023-01-08T06:39:32;8.60;99.90
17992;DHT22;9121;50.926;5.340;2023-01-08T06:41:59;8.60;99.90
17992;DHT22;9121;50.926;5.340;2023-01-08T06:44:26;8.50;99.90
17992;DHT22;9121;50.926;5.340;2023-01-08T06:46:53;8.50;99.80
17992;DHT22;9121;50.926;5.340;2023-01-08T06:49:20;8.50;99.80
17992;DHT22;9121;50.926;5.340;2023-01-08T06:51:48;8.50;99.90
17992;DHT22;9121;50.926;5.340;2023-01-08T06:54:16;8.50;99.90
17992;DHT22;9121;50.926;5.340;2023-01-08T06:56:43;8.50;99.30
17992;DHT22;9121;50.926;5.340;2023-01-08T06:59:13;8.50;99.70
17992;DHT22;9121;50.926;5.340;2023-01-08T07:01:40;8.50;99.10
17992;DHT22;9121;50.926;5.340;2023-01-08T07:04:08;8.50;99.20
17992;DHT22;9121;50.926;5.340;2023-01-08T07:06:34;8.50;99.80
17992;DHT22;9121;50.926;5.340;2023-01-08T07:09:01;8.50;98.90
17992;DHT22;9121;50.926;5.340;2023-01-08T07:11:30;8.50;98.50
17992;DHT22;9121;50.926;5.340;2023-01-08T07:13:57;8.50;98.50
17992;DHT22;9121;50.926;5.340;2023-01-08T07:16:24;8.50;99.00
17992;DHT22;9121;50.926;5.340;2023-01-08T07:18:52;8.50;99.60
17992;DHT22;9121;50.926;5.340;2023-01-08T07:21:20;8.50;99.90
17992;DHT22;9121;50.926;5.340;2023-01-08T07:23:48;8.50;99.30
17992;DHT22;9121;50.926;5.340;2023-01-08T07:26:15;8.50;99.90
17992;DHT22;9121;50.926;5.340;2023-01-08T07:28:43;8.50;99.60
17992;DHT22;9121;50.926;5.340;2023-01-08T07:31:10;8.50;99.50
17992;DHT22;9121;50.926;5.340;2023-01-08T07:33:37;8.40;99.90
17992;DHT22;9121;50.926;5.340;2023-01-08T07:36:05;8.50;99.90
17992;DHT22;9121;50.926;5.340;2023-01-08T07:38:32;8.50;99.90
17992;DHT22;9121;50.926;5.340;2023-01-08T07:40:59;8.40;99.90
17992;DHT22;9121;50.926;5.340;2023-01-08T07:43:26;8.40;99.90
17992;DHT22;9121;50.926;5.340;2023-01-08T07:45:56;8.50;99.90
17992;DHT22;9121;50.926;5.340;2023-01-08T07:48:23;8.50;99.90
17992;DHT22;9121;50.926;5.340;2023-01-08T07:50:50;8.50;99.90
17992;DHT22;9121;50.926;5.340;2023-01-08T07:53:17;8.50;99.90
17992;DHT22;9121;50.926;5.340;2023-01-08T07:55:44;8.50;99.90
17992;DHT22;9121;50.926;5.340;2023-01-08T07:58:13;8.50;99.90
17992;DHT22;9121;50.926;5.340;2023-01-08T08:00:40;8.60;99.90
17992;DHT22;9121;50.926;5.340;2023-01-08T08:03:09;8.60;99.90
17992;DHT22;9121;50.926;5.340;2023-01-08T08:05:37;8.60;99.90
17992;DHT22;9121;50.926;5.340;2023-01-08T08:08:07;8.70;99.90
17992;DHT22;9121;50.926;5.340;2023-01-08T08:10:35;8.70;99.90
17992;DHT22;9121;50.926;5.340;2023-01-08T08:13:02;8.70;99.90
17992;DHT22;9121;50.926;5.340;2023-01-08T08:15:29;8.70;99.90
17992;DHT22;9121;50.926;5.340;2023-01-08T08:17:57;8.80;99.90
17992;DHT22;9121;50.926;5.340;2023-01-08T08:20:26;8.80;99.90
17992;DHT22;9121;50.926;5.340;2023-01-08T08:22:59;8.90;99.90
17992;DHT22;9121;50.926;5.340;2023-01-08T08:25:26;9.00;99.90
17992;DHT22;9121;50.926;5.340;2023-01-08T08:27:55;9.10;99.90
17992;DHT22;9121;50.926;5.340;2023-01-08T08:30:23;9.20;99.90
17992;DHT22;9121;50.926;5.340;2023-01-08T08:32:50;9.20;99.90
17992;DHT22;9121;50.926;5.340;2023-01-08T08:35:17;9.20;99.90
17992;DHT22;9121;50.926;5.340;2023-01-08T08:37:45;9.30;99.90
17992;DHT22;9121;50.926;5.340;2023-01-08T08:40:12;9.30;99.90
17992;DHT22;9121;50.926;5.340;2023-01-08T08:42:39;9.30;99.90
17992;DHT22;9121;50.926;5.340;2023-01-08T08:45:06;9.30;99.90
17992;DHT22;9121;50.926;5.340;2023-01-08T08:47:34;9.40;99.90
17992;DHT22;9121;50.926;5.340;2023-01-08T08:50:00;9.40;99.90
17992;DHT22;9121;50.926;5.340;2023-01-08T08:52:29;9.50;99.90
17992;DHT22;9121;50.926;5.340;2023-01-08T08:54:57;9.60;99.90
17992;DHT22;9121;50.926;5.340;2023-01-08T08:57:24;9.50;99.90
17992;DHT22;9121;50.926;5.340;2023-01-08T08:59:52;9.60;99.90
17992;DHT22;9121;50.926;5.340;2023-01-08T09:02:19;9.60;99.90
17992;DHT22;9121;50.926;5.340;2023-01-08T09:04:46;9.60;99.90
17992;DHT22;9121;50.926;5.340;2023-01-08T09:07:13;9.60;99.90
17992;DHT22;9121;50.926;5.340;2023-01-08T09:09:40;9.60;99.90
17992;DHT22;9121;50.926;5.340;2023-01-08T09:12:08;9.60;99.90
17992;DHT22;9121;50.926;5.340;2023-01-08T09:14:35;9.60;99.90
17992;DHT22;9121;50.926;5.340;2023-01-08T09:17:02;9.50;99.90
17992;DHT22;9121;50.926;5.340;2023-01-08T09:19:29;9.50;99.90
17992;DHT22;9121;50.926;5.340;2023-01-08T09:21:56;9.30;99.90
17992;DHT22;9121;50.926;5.340;2023-01-08T09:24:23;9.30;99.90
17992;DHT22;9121;50.926;5.340;2023-01-08T09:26:52;9.30;99.90
17992;DHT22;9121;50.926;5.340;2023-01-08T09:29:20;9.40;99.90
17992;DHT22;9121;50.926;5.340;2023-01-08T09:31:47;9.50;99.90
17992;DHT22;9121;50.926;5.340;2023-01-08T09:34:14;9.50;99.90
17992;DHT22;9121;50.926;5.340;2023-01-08T09:36:41;9.60;99.90
17992;DHT22;9121;50.926;5.340;2023-01-08T09:39:08;9.60;99.90
17992;DHT22;9121;50.926;5.340;2023-01-08T09:41:40;9.60;99.90
17992;DHT22;9121;50.926;5.340;2023-01-08T09:44:13;9.60;99.90
17992;DHT22;9121;50.926;5.340;2023-01-08T09:46:41;9.50;99.90
17992;DHT22;9121;50.926;5.340;2023-01-08T09:49:14;9.40;99.90
17992;DHT22;9121;50.926;5.340;2023-01-08T09:51:41;9.40;99.90
17992;DHT22;9121;50.926;5.340;2023-01-08T09:54:12;9.40;99.90
17992;DHT22;9121;50.926;5.340;2023-01-08T09:56:40;9.40;99.90
17992;DHT22;9121;50.926;5.340;2023-01-08T09:59:11;9.50;99.90
17992;DHT22;9121;50.926;5.340;2023-01-08T10:01:40;9.30;99.90
17992;DHT22;9121;50.926;5.340;2023-01-08T10:04:14;9.20;99.90
17992;DHT22;9121;50.926;5.340;2023-01-08T10:06:48;9.10;99.90
17992;DHT22;9121;50.926;5.340;2023-01-08T10:09:16;8.90;99.90
17992;DHT22;9121;50.926;5.340;2023-01-08T10:11:46;8.80;99.90
17992;DHT22;9121;50.926;5.340;2023-01-08T10:14:20;8.60;99.90
17992;DHT22;9121;50.926;5.340;2023-01-08T10:16:54;8.60;99.90
17992;DHT22;9121;50.926;5.340;2023-01-08T10:19:23;8.60;99.90
17992;DHT22;9121;50.926;5.340;2023-01-08T10:21:51;8.70;99.90
17992;DHT22;9121;50.926;5.340;2023-01-08T10:24:30;8.70;99.90
17992;DHT22;9121;50.926;5.340;2023-01-08T10:27:05;8.80;99.90
17992;DHT22;9121;50.926;5.340;2023-01-08T10:29:32;8.80;99.90
17992;DHT22;9121;50.926;5.340;2023-01-08T10:32:07;8.90;99.90
17992;DHT22;9121;50.926;5.340;2023-01-08T10:34:45;8.90;99.90
17992;DHT22;9121;50.926;5.340;2023-01-08T10:37:26;9.00;99.90
17992;DHT22;9121;50.926;5.340;2023-01-08T10:40:01;9.10;99.90
17992;DHT22;9121;50.926;5.340;2023-01-08T10:42:33;9.10;99.90
17992;DHT22;9121;50.926;5.340;2023-01-08T10:45:04;9.10;99.90
17992;DHT22;9121;50.926;5.340;2023-01-08T10:47:35;9.20;99.90
17992;DHT22;9121;50.926;5.340;2023-01-08T10:50:05;9.20;99.90
17992;DHT22;9121;50.926;5.340;2023-01-08T10:52:52;9.20;99.90
17992;DHT22;9121;50.926;5.340;2023-01-08T10:55:23;9.20;99.90
17992;DHT22;9121;50.926;5.340;2023-01-08T10:57:56;9.30;99.90
17992;DHT22;9121;50.926;5.340;2023-01-08T11:00:26;9.30;99.90
17992;DHT22;9121;50.926;5.340;2023-01-08T11:02:55;9.40;99.90
17992;DHT22;9121;50.926;5.340;2023-01-08T11:05:29;9.40;99.90
17992;DHT22;9121;50.926;5.340;2023-01-08T11:07:57;9.40;99.90
17992;DHT22;9121;50.926;5.340;2023-01-08T11:10:26;9.50;99.90
17992;DHT22;9121;50.926;5.340;2023-01-08T11:12:56;9.60;99.90
17992;DHT22;9121;50.926;5.340;2023-01-08T11:15:29;9.60;99.90
17992;DHT22;9121;50.926;5.340;2023-01-08T11:18:15;9.70;99.90
17992;DHT22;9121;50.926;5.340;2023-01-08T11:20:45;9.70;99.90
17992;DHT22;9121;50.926;5.340;2023-01-08T11:23:16;9.70;99.90
17992;DHT22;9121;50.926;5.340;2023-01-08T11:25:46;9.80;99.90
17992;DHT22;9121;50.926;5.340;2023-01-08T11:28:23;9.80;99.90
17992;DHT22;9121;50.926;5.340;2023-01-08T11:30:55;9.80;99.90
17992;DHT22;9121;50.926;5.340;2023-01-08T11:33:29;9.90;99.90
17992;DHT22;9121;50.926;5.340;2023-01-08T11:36:02;9.90;99.90
17992;DHT22;9121;50.926;5.340;2023-01-08T11:38:30;9.90;99.90
17992;DHT22;9121;50.926;5.340;2023-01-08T11:41:08;10.00;99.90
17992;DHT22;9121;50.926;5.340;2023-01-08T11:43:45;10.10;99.90
17992;DHT22;9121;50.926;5.340;2023-01-08T11:46:26;10.20;99.90
17992;DHT22;9121;50.926;5.340;2023-01-08T11:49:18;10.30;99.90
17992;DHT22;9121;50.926;5.340;2023-01-08T11:51:59;10.40;99.90
17992;DHT22;9121;50.926;5.340;2023-01-08T11:54:43;10.50;99.90
17992;DHT22;9121;50.926;5.340;2023-01-08T11:57:23;10.60;97.90
17992;DHT22;9121;50.926;5.340;2023-01-08T12:00:03;10.60;97.50
17992;DHT22;9121;50.926;5.340;2023-01-08T12:02:49;10.60;96.70
17992;DHT22;9121;50.926;5.340;2023-01-08T12:05:25;10.70;95.40
17992;DHT22;9121;50.926;5.340;2023-01-08T12:07:59;10.80;93.40
17992;DHT22;9121;50.926;5.340;2023-01-08T12:10:36;10.90;91.50
17992;DHT22;9121;50.926;5.340;2023-01-08T12:13:18;10.80;61.90
17992;DHT22;9121;50.926;5.340;2023-01-08T12:15:59;10.80;48.80
17992;DHT22;9121;50.926;5.340;2023-01-08T12:18:52;11.00;30.10
17992;DHT22;9121;50.926;5.340;2023-01-08T12:21:30;11.30;30.40
17992;DHT22;9121;50.926;5.340;2023-01-08T12:24:10;11.60;27.50
17992;DHT22;9121;50.926;5.340;2023-01-08T12:26:44;11.90;8.70
17992;DHT22;9121;50.926;5.340;2023-01-08T12:29:22;11.90;1.00
17992;DHT22;9121;50.926;5.340;2023-01-08T12:32:04;12.10;1.00
17992;DHT22;9121;50.926;5.340;2023-01-08T12:34:46;12.20;1.00
17992;DHT22;9121;50.926;5.340;2023-01-08T12:37:22;12.50;1.00
17992;DHT22;9121;50.926;5.340;2023-01-08T12:39:53;12.40;1.00
17992;DHT22;9121;50.926;5.340;2023-01-08T12:42:28;12.60;1.00
17992;DHT22;9121;50.926;5.340;2023-01-08T12:44:58;13.00;1.00
17992;DHT22;9121;50.926;5.340;2023-01-08T12:47:28;13.00;1.00
17992;DHT22;9121;50.926;5.340;2023-01-08T12:50:04;13.10;1.00
17992;DHT22;9121;50.926;5.340;2023-01-08T12:52:39;13.20;1.00
17992;DHT22;9121;50.926;5.340;2023-01-08T12:55:18;13.40;1.00
17992;DHT22;9121;50.926;5.340;2023-01-08T12:57:51;13.50;1.00
17992;DHT22;9121;50.926;5.340;2023-01-08T13:00:28;13.20;1.00
17992;DHT22;9121;50.926;5.340;2023-01-08T13:02:58;12.90;1.00
17992;DHT22;9121;50.926;5.340;2023-01-08T13:05:32;12.40;1.00
17992;DHT22;9121;50.926;5.340;2023-01-08T13:08:02;12.10;1.00
17992;DHT22;9121;50.926;5.340;2023-01-08T13:10:35;12.00;1.00
17992;DHT22;9121;50.926;5.340;2023-01-08T13:13:04;12.00;1.00
17992;DHT22;9121;50.926;5.340;2023-01-08T13:15:33;12.00;1.00
17992;DHT22;9121;50.926;5.340;2023-01-08T13:18:06;11.90;1.00
17992;DHT22;9121;50.926;5.340;2023-01-08T13:20:34;12.00;1.00
17992;DHT22;9121;50.926;5.340;2023-01-08T13:23:03;12.30;1.00
17992;DHT22;9121;50.926;5.340;2023-01-08T13:25:33;12.40;1.00
17992;DHT22;9121;50.926;5.340;2023-01-08T13:28:01;13.00;1.00
17992;DHT22;9121;50.926;5.340;2023-01-08T13:30:43;13.30;1.00
17992;DHT22;9121;50.926;5.340;2023-01-08T13:33:29;13.10;1.00
17992;DHT22;9121;50.926;5.340;2023-01-08T13:36:20;13.20;1.00
17992;DHT22;9121;50.926;5.340;2023-01-08T13:39:00;13.50;1.00
17992;DHT22;9121;50.926;5.340;2023-01-08T13:41:30;13.90;1.00
17992;DHT22;9121;50.926;5.340;2023-01-08T13:44:01;13.60;1.00
17992;DHT22;9121;50.926;5.340;2023-01-08T13:46:31;13.00;1.00
17992;DHT22;9121;50.926;5.340;2023-01-08T13:49:00;12.70;1.00
17992;DHT22;9121;50.926;5.340;2023-01-08T13:51:42;12.60;1.00
17992;DHT22;9121;50.926;5.340;2023-01-08T13:54:28;12.40;1.00
17992;DHT22;9121;50.926;5.340;2023-01-08T13:57:02;12.20;1.00
17992;DHT22;9121;50.926;5.340;2023-01-08T13:59:40;12.00;1.00
17992;DHT22;9121;50.926;5.340;2023-01-08T14:02:23;11.70;1.00
17992;DHT22;9121;50.926;5.340;2023-01-08T14:04:52;11.50;1.00
17992;DHT22;9121;50.926;5.340;2023-01-08T14:07:19;11.50;1.00
17992;DHT22;9121;50.926;5.340;2023-01-08T14:09:49;11.50;1.00
17992;DHT22;9121;50.926;5.340;2023-01-08T14:12:18;11.30;1.00
17992;DHT22;9121;50.926;5.340;2023-01-08T14:14:48;11.20;1.00
17992;DHT22;9121;50.926;5.340;2023-01-08T14:17:17;11.10;1.00
17992;DHT22;9121;50.926;5.340;2023-01-08T14:19:46;11.10;1.00
17992;DHT22;9121;50.926;5.340;2023-01-08T14:22:18;11.10;1.00
17992;DHT22;9121;50.926;5.340;2023-01-08T14:24:55;11.10;1.00
17992;DHT22;9121;50.926;5.340;2023-01-08T14:27:24;11.10;1.00
17992;DHT22;9121;50.926;5.340;2023-01-08T14:29:52;11.10;1.00
17992;DHT22;9121;50.926;5.340;2023-01-08T14:32:21;11.20;2.20
17992;DHT22;9121;50.926;5.340;2023-01-08T14:34:50;11.10;6.30
17992;DHT22;9121;50.926;5.340;2023-01-08T14:37:18;11.20;8.20
17992;DHT22;9121;50.926;5.340;2023-01-08T14:39:46;11.20;5.70
17992;DHT22;9121;50.926;5.340;2023-01-08T14:42:19;11.10;6.20
17992;DHT22;9121;50.926;5.340;2023-01-08T14:45:07;11.10;9.90
17992;DHT22;9121;50.926;5.340;2023-01-08T14:47:43;11.10;6.70
17992;DHT22;9121;50.926;5.340;2023-01-08T14:50:18;11.10;15.10
17992;DHT22;9121;50.926;5.340;2023-01-08T14:52:47;11.00;9.30
17992;DHT22;9121;50.926;5.340;2023-01-08T14:55:15;11.00;4.50
17992;DHT22;9121;50.926;5.340;2023-01-08T14:57:48;11.00;1.00
17992;DHT22;9121;50.926;5.340;2023-01-08T15:00:17;11.00;3.50
17992;DHT22;9121;50.926;5.340;2023-01-08T15:02:45;11.00;1.00
17992;DHT22;9121;50.926;5.340;2023-01-08T15:05:16;11.00;1.00
17992;DHT22;9121;50.926;5.340;2023-01-08T15:07:54;11.00;1.00
17992;DHT22;9121;50.926;5.340;2023-01-08T15:10:32;10.90;1.00
17992;DHT22;9121;50.926;5.340;2023-01-08T15:13:01;10.90;1.00
17992;DHT22;9121;50.926;5.340;2023-01-08T15:15:34;10.80;3.50
17992;DHT22;9121;50.926;5.340;2023-01-08T15:18:04;10.70;53.00
17992;DHT22;9121;50.926;5.340;2023-01-08T15:20:33;10.70;85.20
17992;DHT22;9121;50.926;5.340;2023-01-08T15:23:00;10.60;94.00
17992;DHT22;9121;50.926;5.340;2023-01-08T15:25:28;10.60;99.90
17992;DHT22;9121;50.926;5.340;2023-01-08T15:27:58;10.60;99.90
17992;DHT22;9121;50.926;5.340;2023-01-08T15:30:31;10.50;99.90
17992;DHT22;9121;50.926;5.340;2023-01-08T15:33:07;10.50;99.90
17992;DHT22;9121;50.926;5.340;2023-01-08T15:35:34;10.50;99.90
17992;DHT22;9121;50.926;5.340;2023-01-08T15:38:01;10.40;99.90
17992;DHT22;9121;50.926;5.340;2023-01-08T15:40:28;10.30;99.90
17992;DHT22;9121;50.926;5.340;2023-01-08T15:42:55;10.30;99.90
17992;DHT22;9121;50.926;5.340;2023-01-08T15:45:38;10.30;99.90
17992;DHT22;9121;50.926;5.340;2023-01-08T15:48:07;10.20;29.80
17992;DHT22;9121;50.926;5.340;2023-01-08T15:50:35;10.20;32.40
17992;DHT22;9121;50.926;5.340;2023-01-08T15:53:04;10.20;35.00
17992;DHT22;9121;50.926;5.340;2023-01-08T15:55:32;10.20;35.30
17992;DHT22;9121;50.926;5.340;2023-01-08T15:57:59;10.10;37.50
17992;DHT22;9121;50.926;5.340;2023-01-08T16:00:26;10.10;40.40
17992;DHT22;9121;50.926;5.340;2023-01-08T16:02:55;10.10;40.70
17992;DHT22;9121;50.926;5.340;2023-01-08T16:05:24;10.10;40.70
17992;DHT22;9121;50.926;5.340;2023-01-08T16:07:54;10.10;41.80
17992;DHT22;9121;50.926;5.340;2023-01-08T16:10:21;10.00;48.30
17992;DHT22;9121;50.926;5.340;2023-01-08T16:12:49;10.00;47.20
17992;DHT22;9121;50.926;5.340;2023-01-08T16:15:17;10.00;46.70